Time;durP1;ratioP1;P1;durP2;ratioP2;P2;SDS_P1;SDS_P2;PMS_P1;PMS_P2;Temp;Humidity;BMP_temperature;BMP_pressure;BME280_temperature;BME280_humidity;BME280_pressure;Samples;Min_cycle;Max_cycle;Signal;HPM_P1;HPM_P2
2022/10/23 00:01:27;;;;;;;40.37;28.43;;;;;;;;;;4964428;28;20182;-36
2022/10/23 00:03:54;;;;;;;40.07;29.77;;;;;;;;;;4960114;28;20196;-36
2022/10/23 00:06:20;;;;;;;43.33;30.57;;;;;;;;;;4958687;28;20706;-36
2022/10/23 00:08:47;;;;;;;43.23;29.53;;;;;;;;;;4960603;28;20521;-36
2022/10/23 00:11:15;;;;;;;41.47;29.73;;;;;;;;;;4959046;28;21030;-35
2022/10/23 00:13:41;;;;;;;44.23;30.73;;;;;;;;;;4956280;28;20574;-35
2022/10/23 00:16:08;;;;;;;43.00;30.97;;;;;;;;;;4958104;28;20603;-36
2022/10/23 00:18:34;;;;;;;47.23;31.37;;;;;;;;;;4958943;28;20615;-35
2022/10/23 00:21:00;;;;;;;42.83;31.10;;;;;;;;;;4959532;28;20823;-36
2022/10/23 00:23:26;;;;;;;43.20;31.27;;;;;;;;;;4960842;28;20585;-36
2022/10/23 00:25:52;;;;;;;45.50;33.37;;;;;;;;;;4957792;28;20197;-36
2022/10/23 00:28:19;;;;;;;45.27;31.57;;;;;;;;;;4962485;28;20190;-37
2022/10/23 00:30:45;;;;;;;39.60;28.87;;;;;;;;;;4959003;28;20264;-35
2022/10/23 00:33:11;;;;;;;41.67;29.97;;;;;;;;;;4960904;28;20198;-37
2022/10/23 00:35:40;;;;;;;47.97;33.43;;;;;;;;;;4960215;28;20583;-36
2022/10/23 00:38:07;;;;;;;40.73;29.70;;;;;;;;;;4957850;28;20182;-36
2022/10/23 00:40:33;;;;;;;44.93;33.10;;;;;;;;;;4956949;28;20572;-36
2022/10/23 00:42:59;;;;;;;43.07;31.13;;;;;;;;;;4946573;28;20701;-36
2022/10/23 00:45:32;;;;;;;42.53;30.17;;;;;;;;;;4946041;28;20738;-37
2022/10/23 00:47:59;;;;;;;40.40;30.87;;;;;;;;;;4953583;28;20539;-36
2022/10/23 00:50:25;;;;;;;42.10;29.20;;;;;;;;;;4953595;28;20186;-36
2022/10/23 00:52:53;;;;;;;38.97;29.83;;;;;;;;;;4954036;28;20580;-36
2022/10/23 00:55:21;;;;;;;44.20;30.37;;;;;;;;;;4958018;28;20250;-37
2022/10/23 00:57:48;;;;;;;39.00;30.37;;;;;;;;;;4949782;28;20170;-36
2022/10/23 01:00:16;;;;;;;43.00;29.33;;;;;;;;;;4950846;28;20653;-36
2022/10/23 01:02:42;;;;;;;40.60;30.20;;;;;;;;;;4952274;28;20189;-36
2022/10/23 01:05:09;;;;;;;36.67;28.17;;;;;;;;;;4955620;28;20214;-36
2022/10/23 01:07:40;;;;;;;47.20;32.57;;;;;;;;;;4951685;28;20445;-36
2022/10/23 01:10:16;;;;;;;44.33;31.47;;;;;;;;;;4948179;28;20171;-36
2022/10/23 01:12:45;;;;;;;45.37;32.63;;;;;;;;;;4951017;28;20750;-36
2022/10/23 01:15:21;;;;;;;42.17;29.83;;;;;;;;;;4949120;28;21128;-36
2022/10/23 01:17:47;;;;;;;40.87;30.27;;;;;;;;;;4949327;28;20175;-37
2022/10/23 01:20:21;;;;;;;39.77;29.27;;;;;;;;;;4952164;28;20178;-36
2022/10/23 01:22:47;;;;;;;42.33;29.33;;;;;;;;;;4951901;28;20447;-36
2022/10/23 01:25:40;;;;;;;39.57;29.70;;;;;;;;;;4952061;28;20987;-36
2022/10/23 01:28:09;;;;;;;39.80;29.43;;;;;;;;;;4949042;28;20197;-36
2022/10/23 01:30:37;;;;;;;40.13;29.40;;;;;;;;;;4948978;28;20461;-37
2022/10/23 01:33:06;;;;;;;50.43;33.67;;;;;;;;;;4946439;28;20490;-36
2022/10/23 01:35:37;;;;;;;38.50;28.53;;;;;;;;;;4951256;28;20389;-37
2022/10/23 01:38:06;;;;;;;51.40;33.03;;;;;;;;;;4951498;28;20524;-37
2022/10/23 01:40:34;;;;;;;40.00;29.80;;;;;;;;;;4951773;28;20906;-37
2022/10/23 01:43:11;;;;;;;39.90;29.97;;;;;;;;;;4947226;28;21881;-37
2022/10/23 01:45:39;;;;;;;55.13;34.97;;;;;;;;;;4947667;28;20183;-36
2022/10/23 01:48:08;;;;;;;46.73;32.30;;;;;;;;;;4947836;28;20189;-37
2022/10/23 01:50:35;;;;;;;43.33;32.13;;;;;;;;;;4948652;28;20188;-35
2022/10/23 01:53:02;;;;;;;53.10;35.70;;;;;;;;;;4952976;28;20706;-36
2022/10/23 01:55:28;;;;;;;44.33;31.13;;;;;;;;;;4945243;28;20189;-36
2022/10/23 01:57:55;;;;;;;44.77;33.17;;;;;;;;;;4944542;28;20760;-37
2022/10/23 02:00:21;;;;;;;57.53;36.80;;;;;;;;;;4941378;28;20650;-36
2022/10/23 02:02:48;;;;;;;51.53;36.87;;;;;;;;;;4947679;28;20183;-37
2022/10/23 02:05:14;;;;;;;49.90;35.90;;;;;;;;;;4949493;28;20178;-36
2022/10/23 02:07:40;;;;;;;47.10;33.90;;;;;;;;;;4954336;28;20230;-37
2022/10/23 02:10:08;;;;;;;45.33;33.07;;;;;;;;;;4942654;28;20909;-36
2022/10/23 02:12:43;;;;;;;48.47;34.17;;;;;;;;;;4950388;28;20210;-38
2022/10/23 02:15:13;;;;;;;44.83;33.27;;;;;;;;;;4948739;28;20484;-36
2022/10/23 02:17:49;;;;;;;43.33;30.97;;;;;;;;;;4950028;28;20190;-37
2022/10/23 02:20:27;;;;;;;45.73;34.57;;;;;;;;;;4948146;28;20766;-37
2022/10/23 02:23:00;;;;;;;46.80;32.40;;;;;;;;;;4952750;28;20186;-37
2022/10/23 02:25:38;;;;;;;48.90;33.80;;;;;;;;;;4945171;28;20708;-37
2022/10/23 02:28:06;;;;;;;49.53;33.07;;;;;;;;;;4951090;28;20284;-36
2022/10/23 02:30:33;;;;;;;41.20;29.77;;;;;;;;;;4949927;28;20182;-36
2022/10/23 02:33:01;;;;;;;47.30;34.40;;;;;;;;;;4941839;28;20245;-37
2022/10/23 02:35:27;;;;;;;52.53;36.07;;;;;;;;;;4945284;28;20464;-37
2022/10/23 02:37:57;;;;;;;41.80;31.13;;;;;;;;;;4950593;28;20175;-36
2022/10/23 02:40:24;;;;;;;50.60;35.43;;;;;;;;;;4950985;28;20709;-37
2022/10/23 02:42:54;;;;;;;48.03;35.80;;;;;;;;;;4948261;28;20273;-37
2022/10/23 02:45:29;;;;;;;44.73;31.53;;;;;;;;;;4950543;28;20182;-36
2022/10/23 02:48:00;;;;;;;42.30;29.90;;;;;;;;;;4948516;28;20304;-37
2022/10/23 02:50:29;;;;;;;40.43;29.67;;;;;;;;;;4948194;28;20193;-36
2022/10/23 02:52:55;;;;;;;50.67;33.93;;;;;;;;;;4952952;28;20213;-36
2022/10/23 02:55:42;;;;;;;52.10;35.27;;;;;;;;;;4953766;28;20187;-36
2022/10/23 02:58:08;;;;;;;44.83;30.80;;;;;;;;;;4951093;28;20324;-36
2022/10/23 03:00:35;;;;;;;50.33;34.63;;;;;;;;;;4948728;28;20657;-37
2022/10/23 03:03:22;;;;;;;50.77;34.40;;;;;;;;;;4949742;28;20610;-36
2022/10/23 03:05:48;;;;;;;45.00;30.10;;;;;;;;;;4952717;28;20189;-37
2022/10/23 03:08:14;;;;;;;49.20;33.37;;;;;;;;;;4952427;28;20599;-37
2022/10/23 03:10:41;;;;;;;48.03;32.73;;;;;;;;;;4949277;28;20625;-36
2022/10/23 03:13:07;;;;;;;53.90;35.83;;;;;;;;;;4957363;28;20526;-37
2022/10/23 03:15:33;;;;;;;39.50;29.87;;;;;;;;;;4955011;28;21270;-37
2022/10/23 03:17:59;;;;;;;42.80;30.50;;;;;;;;;;4952829;28;20217;-37
2022/10/23 03:20:26;;;;;;;52.60;34.67;;;;;;;;;;4951760;28;21100;-37
2022/10/23 03:22:52;;;;;;;39.30;29.17;;;;;;;;;;4957477;28;20541;-36
2022/10/23 03:25:18;;;;;;;46.73;31.77;;;;;;;;;;4962810;28;20189;-37
2022/10/23 03:27:44;;;;;;;42.80;31.53;;;;;;;;;;4956371;28;20507;-36
2022/10/23 03:30:10;;;;;;;45.03;31.33;;;;;;;;;;4957544;28;20225;-36
2022/10/23 03:32:36;;;;;;;49.43;32.80;;;;;;;;;;4955222;28;20323;-36
2022/10/23 03:35:02;;;;;;;40.50;30.50;;;;;;;;;;4960142;28;20448;-36
2022/10/23 03:37:29;;;;;;;42.50;29.77;;;;;;;;;;4957482;28;20417;-37
2022/10/23 03:39:55;;;;;;;53.63;35.40;;;;;;;;;;4956196;28;20738;-37
2022/10/23 03:42:21;;;;;;;51.50;34.47;;;;;;;;;;4956731;28;20654;-37
2022/10/23 03:44:47;;;;;;;45.57;32.53;;;;;;;;;;4958432;28;20413;-37
2022/10/23 03:47:13;;;;;;;46.07;32.23;;;;;;;;;;4953979;28;20182;-37
2022/10/23 03:49:39;;;;;;;44.43;31.13;;;;;;;;;;4954634;28;20186;-36
2022/10/23 03:52:05;;;;;;;45.60;33.17;;;;;;;;;;4958486;28;20175;-36
2022/10/23 03:54:32;;;;;;;50.97;34.10;;;;;;;;;;4952647;28;20213;-37
2022/10/23 03:56:58;;;;;;;71.23;40.83;;;;;;;;;;4954331;28;20213;-37
2022/10/23 03:59:24;;;;;;;62.53;37.77;;;;;;;;;;4958831;28;20613;-37
2022/10/23 04:01:51;;;;;;;59.20;37.80;;;;;;;;;;4954571;28;20523;-37
2022/10/23 04:04:17;;;;;;;59.37;37.17;;;;;;;;;;4954025;28;20527;-37
2022/10/23 04:06:43;;;;;;;55.53;36.27;;;;;;;;;;4956268;28;20653;-37
2022/10/23 04:09:09;;;;;;;59.23;36.17;;;;;;;;;;4957572;28;20189;-37
2022/10/23 04:11:35;;;;;;;59.67;38.40;;;;;;;;;;4953218;28;20771;-36
2022/10/23 04:14:01;;;;;;;56.50;36.37;;;;;;;;;;4952375;28;20681;-36
2022/10/23 04:16:27;;;;;;;61.90;37.60;;;;;;;;;;4953816;28;20265;-37
2022/10/23 04:18:53;;;;;;;77.47;42.77;;;;;;;;;;4953877;28;20409;-37
2022/10/23 04:21:19;;;;;;;62.90;38.57;;;;;;;;;;4949799;28;20695;-37
2022/10/23 04:23:46;;;;;;;64.93;38.73;;;;;;;;;;4956859;28;20208;-36
2022/10/23 04:26:12;;;;;;;59.77;37.93;;;;;;;;;;4960806;28;20280;-37
2022/10/23 04:28:38;;;;;;;71.90;42.63;;;;;;;;;;4951714;28;20527;-37
2022/10/23 04:31:04;;;;;;;55.37;36.17;;;;;;;;;;4950239;28;20278;-36
2022/10/23 04:33:30;;;;;;;61.37;38.23;;;;;;;;;;4954819;28;20273;-36
2022/10/23 04:35:56;;;;;;;54.67;36.83;;;;;;;;;;4954274;28;20175;-37
2022/10/23 04:38:22;;;;;;;65.30;40.97;;;;;;;;;;4950228;28;20562;-37
2022/10/23 04:40:48;;;;;;;80.47;43.43;;;;;;;;;;4952234;28;20175;-37
2022/10/23 04:43:14;;;;;;;62.73;39.27;;;;;;;;;;4951406;28;20485;-37
2022/10/23 04:45:40;;;;;;;88.07;47.53;;;;;;;;;;4953408;28;20638;-37
2022/10/23 04:48:06;;;;;;;71.27;42.27;;;;;;;;;;4953663;28;20393;-37
2022/10/23 04:50:32;;;;;;;98.70;47.53;;;;;;;;;;4950683;28;20189;-37
2022/10/23 04:52:58;;;;;;;81.23;44.83;;;;;;;;;;4952451;28;20198;-37
2022/10/23 04:55:25;;;;;;;82.80;45.00;;;;;;;;;;4953928;28;20209;-36
2022/10/23 04:57:51;;;;;;;82.63;44.90;;;;;;;;;;4953716;28;20213;-36
2022/10/23 05:00:18;;;;;;;68.63;41.93;;;;;;;;;;4951309;28;20764;-37
2022/10/23 05:02:45;;;;;;;63.57;39.90;;;;;;;;;;4954418;28;20837;-37
2022/10/23 05:05:11;;;;;;;56.67;36.37;;;;;;;;;;4952480;28;20189;-37
2022/10/23 05:07:37;;;;;;;49.43;34.83;;;;;;;;;;4955538;28;20190;-37
2022/10/23 05:10:04;;;;;;;63.70;37.10;;;;;;;;;;4953421;28;20193;-37
2022/10/23 05:12:30;;;;;;;63.77;40.03;;;;;;;;;;4955544;28;20451;-37
2022/10/23 05:14:56;;;;;;;56.23;36.13;;;;;;;;;;4953071;28;20182;-36
2022/10/23 05:17:24;;;;;;;52.43;34.77;;;;;;;;;;4949828;28;20891;-37
2022/10/23 05:19:52;;;;;;;64.03;40.67;;;;;;;;;;4957504;28;20296;-35
2022/10/23 05:22:19;;;;;;;69.23;41.47;;;;;;;;;;4952068;28;20885;-37
2022/10/23 05:24:46;;;;;;;51.73;35.50;;;;;;;;;;4955273;28;20182;-37
2022/10/23 05:27:12;;;;;;;64.13;39.83;;;;;;;;;;4952783;28;20186;-37
2022/10/23 05:29:38;;;;;;;64.70;40.33;;;;;;;;;;4950776;28;20389;-37
2022/10/23 05:32:05;;;;;;;66.27;39.70;;;;;;;;;;4951654;28;20190;-37
2022/10/23 05:34:33;;;;;;;72.40;42.63;;;;;;;;;;4952547;28;20206;-36
2022/10/23 05:36:59;;;;;;;75.40;43.10;;;;;;;;;;4954322;28;20653;-36
2022/10/23 05:39:26;;;;;;;84.13;44.67;;;;;;;;;;4949401;28;20209;-37
2022/10/23 05:41:53;;;;;;;67.20;40.63;;;;;;;;;;4952731;28;20189;-37
2022/10/23 05:44:20;;;;;;;62.40;37.77;;;;;;;;;;4954407;28;20183;-37
2022/10/23 05:46:46;;;;;;;63.30;39.63;;;;;;;;;;4950225;28;20788;-37
2022/10/23 05:49:12;;;;;;;61.90;38.47;;;;;;;;;;4950100;28;20185;-36
2022/10/23 05:51:41;;;;;;;72.80;41.93;;;;;;;;;;4954557;28;20722;-37
2022/10/23 05:54:08;;;;;;;91.33;45.70;;;;;;;;;;4953515;28;20208;-37
2022/10/23 05:56:42;;;;;;;199.37;52.10;;;;;;;;;;4949607;28;20209;-37
2022/10/23 05:59:09;;;;;;;118.63;46.90;;;;;;;;;;4948746;28;20295;-36
2022/10/23 06:01:35;;;;;;;69.13;41.03;;;;;;;;;;4949892;28;20638;-37
2022/10/23 06:04:01;;;;;;;61.30;39.87;;;;;;;;;;4956468;28;20190;-37
2022/10/23 06:06:27;;;;;;;68.97;42.27;;;;;;;;;;4948893;28;20192;-37
2022/10/23 06:08:54;;;;;;;69.23;41.97;;;;;;;;;;4951803;28;20653;-37
2022/10/23 06:11:20;;;;;;;85.17;46.20;;;;;;;;;;4952755;28;20669;-36
2022/10/23 06:13:47;;;;;;;66.67;39.83;;;;;;;;;;4949961;28;20202;-37
2022/10/23 06:16:14;;;;;;;96.27;43.97;;;;;;;;;;4950708;28;20764;-36
2022/10/23 06:18:41;;;;;;;67.30;40.10;;;;;;;;;;4950935;28;20170;-37
2022/10/23 06:21:07;;;;;;;52.10;35.67;;;;;;;;;;4955213;28;20525;-37
2022/10/23 06:23:34;;;;;;;50.10;33.40;;;;;;;;;;4953811;28;20260;-37
2022/10/23 06:26:00;;;;;;;54.30;36.30;;;;;;;;;;4942902;28;20178;-37
2022/10/23 06:28:26;;;;;;;50.00;34.97;;;;;;;;;;4950655;28;20193;-37
2022/10/23 06:30:53;;;;;;;49.93;32.83;;;;;;;;;;4944765;28;20697;-37
2022/10/23 06:33:19;;;;;;;48.43;34.97;;;;;;;;;;4952068;28;20271;-37
2022/10/23 06:35:45;;;;;;;49.63;34.73;;;;;;;;;;4949849;28;20185;-37
2022/10/23 06:38:11;;;;;;;46.43;32.93;;;;;;;;;;4947866;28;20178;-37
2022/10/23 06:40:37;;;;;;;74.77;42.27;;;;;;;;;;4949684;28;20516;-36
2022/10/23 06:43:04;;;;;;;64.73;37.90;;;;;;;;;;4951485;28;20388;-36
2022/10/23 06:45:32;;;;;;;47.10;34.17;;;;;;;;;;4946584;28;21242;-37
2022/10/23 06:47:58;;;;;;;55.23;36.53;;;;;;;;;;4947280;28;20840;-37
2022/10/23 06:50:25;;;;;;;57.70;38.20;;;;;;;;;;4949548;28;20182;-37
2022/10/23 06:52:51;;;;;;;48.00;34.77;;;;;;;;;;4948145;28;20724;-37
2022/10/23 06:55:17;;;;;;;54.43;37.33;;;;;;;;;;4944976;28;20213;-37
2022/10/23 06:57:43;;;;;;;67.10;40.77;;;;;;;;;;4947345;28;20697;-37
2022/10/23 07:00:10;;;;;;;94.70;43.23;;;;;;;;;;4949014;28;20189;-37
2022/10/23 07:02:36;;;;;;;47.43;34.93;;;;;;;;;;4949611;28;20186;-36
2022/10/23 07:05:03;;;;;;;52.43;36.53;;;;;;;;;;4945904;28;20202;-37
2022/10/23 07:07:29;;;;;;;74.63;42.63;;;;;;;;;;4942120;28;20562;-37
2022/10/23 07:09:55;;;;;;;45.80;33.07;;;;;;;;;;4949054;28;20422;-36
2022/10/23 07:12:21;;;;;;;45.97;32.97;;;;;;;;;;4941762;28;20178;-37
2022/10/23 07:14:47;;;;;;;45.57;32.40;;;;;;;;;;4947716;28;20229;-37
2022/10/23 07:17:13;;;;;;;69.47;40.20;;;;;;;;;;4945389;28;20559;-37
2022/10/23 07:19:40;;;;;;;51.57;36.53;;;;;;;;;;4949019;28;20180;-37
2022/10/23 07:22:06;;;;;;;50.17;33.60;;;;;;;;;;4947378;28;20625;-37
2022/10/23 07:24:35;;;;;;;54.07;35.07;;;;;;;;;;4951326;28;20179;-37
2022/10/23 07:27:02;;;;;;;52.57;35.93;;;;;;;;;;4945467;28;20267;-37
2022/10/23 07:29:28;;;;;;;70.93;41.90;;;;;;;;;;4945774;28;20265;-36
2022/10/23 07:31:54;;;;;;;53.63;37.03;;;;;;;;;;4949358;28;20782;-36
2022/10/23 07:34:20;;;;;;;54.90;36.50;;;;;;;;;;4948982;28;20567;-37
2022/10/23 07:36:46;;;;;;;52.43;35.10;;;;;;;;;;4947414;28;20222;-36
2022/10/23 07:39:12;;;;;;;48.63;33.40;;;;;;;;;;4947098;28;20576;-37
2022/10/23 07:41:39;;;;;;;56.53;37.00;;;;;;;;;;4946680;28;20185;-36
2022/10/23 07:44:05;;;;;;;50.33;35.53;;;;;;;;;;4944626;28;20914;-36
2022/10/23 07:46:31;;;;;;;47.63;35.60;;;;;;;;;;4945206;28;20186;-36
2022/10/23 07:48:57;;;;;;;52.00;33.87;;;;;;;;;;4948440;28;20573;-36
2022/10/23 07:51:23;;;;;;;50.50;35.07;;;;;;;;;;4951041;28;20860;-37
2022/10/23 07:53:49;;;;;;;70.87;40.87;;;;;;;;;;4948034;28;20228;-36
2022/10/23 07:56:17;;;;;;;51.10;34.87;;;;;;;;;;4954834;28;20422;-37
2022/10/23 07:58:43;;;;;;;52.10;35.47;;;;;;;;;;4948783;28;20225;-36
2022/10/23 08:01:14;;;;;;;48.00;33.20;;;;;;;;;;4936612;28;20817;-37
2022/10/23 08:03:40;;;;;;;48.43;34.60;;;;;;;;;;4937897;28;20380;-37
2022/10/23 08:06:06;;;;;;;62.27;40.93;;;;;;;;;;4948084;28;20498;-36
2022/10/23 08:08:32;;;;;;;67.53;42.13;;;;;;;;;;4950665;28;20791;-36
2022/10/23 08:10:59;;;;;;;52.53;35.03;;;;;;;;;;4949382;28;20289;-36
2022/10/23 08:13:25;;;;;;;49.47;35.37;;;;;;;;;;4955509;28;20214;-38
2022/10/23 08:15:52;;;;;;;58.20;39.00;;;;;;;;;;4942645;28;20603;-36
2022/10/23 08:18:18;;;;;;;47.20;34.00;;;;;;;;;;4946058;28;20182;-37
2022/10/23 08:20:45;;;;;;;49.90;34.87;;;;;;;;;;4948973;28;20305;-36
2022/10/23 08:23:12;;;;;;;47.90;33.63;;;;;;;;;;4947432;28;20183;-37
2022/10/23 08:25:39;;;;;;;48.50;32.83;;;;;;;;;;4940228;28;20653;-37
2022/10/23 08:28:05;;;;;;;51.40;35.50;;;;;;;;;;4945899;28;21151;-36
2022/10/23 08:30:32;;;;;;;54.97;37.17;;;;;;;;;;4949871;28;20174;-36
2022/10/23 08:32:58;;;;;;;66.03;40.40;;;;;;;;;;4950291;28;20846;-36
2022/10/23 08:35:24;;;;;;;68.97;43.10;;;;;;;;;;4954466;28;20182;-35
2022/10/23 08:37:50;;;;;;;52.30;35.97;;;;;;;;;;4953602;28;20600;-36
2022/10/23 08:40:25;;;;;;;55.57;38.47;;;;;;;;;;4951486;28;20613;-36
2022/10/23 08:43:11;;;;;;;53.43;35.50;;;;;;;;;;4942109;28;20186;-36
2022/10/23 08:45:52;;;;;;;65.67;41.83;;;;;;;;;;4921623;28;20365;-36
2022/10/23 08:48:24;;;;;;;51.67;36.73;;;;;;;;;;4941222;28;20276;-36
2022/10/23 08:50:59;;;;;;;54.17;36.13;;;;;;;;;;4944550;28;20636;-36
2022/10/23 08:53:28;;;;;;;59.13;39.43;;;;;;;;;;4953242;28;20761;-35
2022/10/23 08:56:06;;;;;;;54.03;38.20;;;;;;;;;;4958420;28;20275;-36
2022/10/23 08:58:44;;;;;;;61.83;39.70;;;;;;;;;;4954702;28;20228;-37
2022/10/23 09:01:26;;;;;;;51.70;36.90;;;;;;;;;;4957342;28;20666;-37
2022/10/23 09:03:52;;;;;;;59.20;39.97;;;;;;;;;;4959710;28;20193;-37
2022/10/23 09:06:40;;;;;;;51.73;36.83;;;;;;;;;;4954700;28;20174;-36
2022/10/23 09:09:15;;;;;;;50.03;36.77;;;;;;;;;;4956902;28;20547;-37
2022/10/23 09:11:41;;;;;;;57.57;39.83;;;;;;;;;;4954406;28;20817;-37
2022/10/23 09:14:25;;;;;;;52.90;38.17;;;;;;;;;;4954941;28;20717;-36
2022/10/23 09:16:57;;;;;;;49.77;36.83;;;;;;;;;;4957722;28;20182;-37
2022/10/23 09:19:26;;;;;;;44.83;34.93;;;;;;;;;;4957401;28;20430;-37
2022/10/23 09:21:53;;;;;;;55.33;38.00;;;;;;;;;;4954237;28;20179;-38
2022/10/23 09:24:20;;;;;;;48.43;35.47;;;;;;;;;;4955665;28;20174;-37
2022/10/23 09:26:48;;;;;;;53.50;37.30;;;;;;;;;;4956881;28;20281;-38
2022/10/23 09:29:21;;;;;;;53.50;36.83;;;;;;;;;;4941444;28;20200;-37
2022/10/23 09:31:49;;;;;;;55.17;38.60;;;;;;;;;;4936700;28;20334;-37
2022/10/23 09:34:19;;;;;;;53.20;37.37;;;;;;;;;;4938009;28;21248;-38
2022/10/23 09:36:50;;;;;;;51.80;37.50;;;;;;;;;;4937209;28;20612;-37
2022/10/23 09:39:45;;;;;;;51.90;38.23;;;;;;;;;;4938533;28;20249;-37
2022/10/23 09:42:29;;;;;;;52.60;38.33;;;;;;;;;;4933148;28;20187;-37
2022/10/23 09:44:56;;;;;;;55.37;39.73;;;;;;;;;;4946937;28;20224;-38
2022/10/23 09:47:23;;;;;;;58.53;40.57;;;;;;;;;;4939991;28;20344;-37
2022/10/23 09:49:51;;;;;;;59.30;41.23;;;;;;;;;;4937739;28;20685;-37
2022/10/23 09:52:17;;;;;;;51.60;37.27;;;;;;;;;;4937037;28;20584;-38
2022/10/23 09:54:47;;;;;;;57.53;40.97;;;;;;;;;;4944417;28;20293;-38
2022/10/23 09:57:32;;;;;;;54.97;41.63;;;;;;;;;;4944190;28;20170;-37
2022/10/23 10:00:06;;;;;;;55.37;41.63;;;;;;;;;;4944186;28;20221;-37
2022/10/23 10:02:34;;;;;;;52.60;39.70;;;;;;;;;;4941990;28;20178;-37
2022/10/23 10:05:10;;;;;;;51.07;38.53;;;;;;;;;;4947381;28;20549;-37
2022/10/23 10:07:37;;;;;;;56.07;40.17;;;;;;;;;;4945448;28;20431;-37
2022/10/23 10:10:07;;;;;;;61.07;42.30;;;;;;;;;;4944994;28;20182;-37
2022/10/23 10:12:33;;;;;;;52.57;40.13;;;;;;;;;;4947262;28;20174;-38
2022/10/23 10:15:02;;;;;;;59.70;42.37;;;;;;;;;;4943871;28;20429;-37
2022/10/23 10:17:34;;;;;;;65.60;45.77;;;;;;;;;;4944872;28;20413;-38
2022/10/23 10:20:18;;;;;;;58.93;44.23;;;;;;;;;;4943450;28;20633;-37
2022/10/23 10:22:52;;;;;;;76.83;48.20;;;;;;;;;;4931244;28;20749;-38
2022/10/23 10:25:31;;;;;;;75.80;51.10;;;;;;;;;;4940721;28;20607;-37
2022/10/23 10:28:23;;;;;;;66.27;47.90;;;;;;;;;;4947407;28;20610;-37
2022/10/23 10:30:58;;;;;;;82.37;56.40;;;;;;;;;;4921151;28;20655;-37
2022/10/23 10:33:30;;;;;;;79.33;54.43;;;;;;;;;;4946317;28;20240;-38
2022/10/23 10:36:10;;;;;;;79.60;55.57;;;;;;;;;;4945144;28;20489;-38
2022/10/23 10:38:51;;;;;;;68.27;49.47;;;;;;;;;;4948182;28;20652;-38
2022/10/23 10:41:17;;;;;;;60.70;43.80;;;;;;;;;;4938108;28;20222;-37
2022/10/23 10:43:48;;;;;;;63.27;47.43;;;;;;;;;;4941731;28;20791;-37
2022/10/23 10:46:41;;;;;;;58.07;43.17;;;;;;;;;;4948704;28;20178;-38
2022/10/23 10:49:12;;;;;;;53.53;42.37;;;;;;;;;;4936914;28;20202;-37
2022/10/23 10:51:52;;;;;;;61.23;42.67;;;;;;;;;;4935280;28;20218;-37
2022/10/23 10:54:35;;;;;;;50.53;39.20;;;;;;;;;;4941856;28;20202;-38
2022/10/23 10:57:04;;;;;;;50.70;39.13;;;;;;;;;;4947075;28;20185;-36
2022/10/23 10:59:31;;;;;;;52.87;40.77;;;;;;;;;;4947167;28;20278;-37
2022/10/23 11:02:16;;;;;;;60.40;43.70;;;;;;;;;;4942869;28;20170;-37
2022/10/23 11:04:45;;;;;;;53.60;40.10;;;;;;;;;;4942430;28;20312;-37
2022/10/23 11:07:13;;;;;;;58.43;44.07;;;;;;;;;;4949048;28;20178;-38
2022/10/23 11:09:40;;;;;;;55.50;41.80;;;;;;;;;;4942551;28;20197;-38
2022/10/23 11:12:06;;;;;;;59.27;42.97;;;;;;;;;;4945605;28;20209;-37
2022/10/23 11:14:34;;;;;;;55.73;42.13;;;;;;;;;;4947045;28;20205;-37
2022/10/23 11:17:23;;;;;;;54.13;41.13;;;;;;;;;;4945308;28;20233;-37
2022/10/23 11:19:54;;;;;;;54.87;40.90;;;;;;;;;;4942576;28;20182;-37
2022/10/23 11:22:35;;;;;;;50.50;39.63;;;;;;;;;;4946354;28;20512;-37
2022/10/23 11:25:07;;;;;;;53.30;41.87;;;;;;;;;;4948862;28;20226;-37
2022/10/23 11:27:36;;;;;;;48.43;37.53;;;;;;;;;;4947450;28;20178;-37
2022/10/23 11:30:08;;;;;;;48.70;37.43;;;;;;;;;;4945344;28;20706;-38
2022/10/23 11:32:53;;;;;;;49.37;37.10;;;;;;;;;;4941875;28;20953;-38
2022/10/23 11:35:19;;;;;;;49.63;36.50;;;;;;;;;;4949196;28;20696;-37
2022/10/23 11:37:56;;;;;;;48.00;36.13;;;;;;;;;;4951699;28;20182;-38
2022/10/23 11:40:23;;;;;;;42.83;33.57;;;;;;;;;;4944443;28;20796;-38
2022/10/23 11:42:50;;;;;;;47.07;34.70;;;;;;;;;;4946678;28;20413;-38
2022/10/23 11:45:33;;;;;;;42.97;35.03;;;;;;;;;;4948264;28;20198;-37
2022/10/23 11:48:01;;;;;;;46.43;35.13;;;;;;;;;;4950701;28;20757;-38
2022/10/23 11:50:29;;;;;;;43.03;33.60;;;;;;;;;;4944858;28;20666;-38
2022/10/23 11:52:57;;;;;;;42.30;32.30;;;;;;;;;;4948591;28;20627;-38
2022/10/23 11:55:25;;;;;;;49.43;36.67;;;;;;;;;;4949970;28;20583;-37
2022/10/23 11:58:08;;;;;;;41.07;33.60;;;;;;;;;;4948364;28;20558;-37
2022/10/23 12:00:38;;;;;;;42.47;33.93;;;;;;;;;;4948310;28;20178;-37
2022/10/23 12:03:05;;;;;;;43.07;32.80;;;;;;;;;;4950439;28;20923;-38
2022/10/23 12:05:40;;;;;;;44.93;35.13;;;;;;;;;;4956950;28;20182;-38
2022/10/23 12:08:16;;;;;;;41.90;33.60;;;;;;;;;;4961060;28;20583;-37
2022/10/23 12:10:46;;;;;;;40.47;32.30;;;;;;;;;;4958069;28;20216;-38
2022/10/23 12:13:28;;;;;;;39.57;31.40;;;;;;;;;;4946867;28;20229;-38
2022/10/23 12:15:54;;;;;;;40.60;31.80;;;;;;;;;;4932933;28;20225;-37
2022/10/23 12:18:21;;;;;;;43.37;33.70;;;;;;;;;;4944280;28;20547;-38
2022/10/23 12:20:50;;;;;;;42.63;32.63;;;;;;;;;;4943739;28;20303;-38
2022/10/23 12:23:36;;;;;;;42.30;33.10;;;;;;;;;;4940749;28;20843;-37
2022/10/23 12:26:12;;;;;;;40.60;32.03;;;;;;;;;;4943663;28;20178;-38
2022/10/23 12:28:49;;;;;;;43.10;32.50;;;;;;;;;;4945039;28;20193;-36
2022/10/23 12:31:34;;;;;;;42.13;31.23;;;;;;;;;;4943374;28;20280;-35
2022/10/23 12:34:19;;;;;;;38.80;31.33;;;;;;;;;;4948048;28;20193;-36
2022/10/23 12:36:59;;;;;;;37.53;31.80;;;;;;;;;;4941328;28;20188;-36
2022/10/23 12:39:35;;;;;;;38.50;30.43;;;;;;;;;;4950941;28;20178;-35
2022/10/23 12:42:01;;;;;;;38.73;31.60;;;;;;;;;;4958334;28;20404;-35
2022/10/23 12:44:28;;;;;;;43.37;31.83;;;;;;;;;;4944066;28;20531;-36
2022/10/23 12:46:58;;;;;;;42.13;32.83;;;;;;;;;;4952521;28;20538;-35
2022/10/23 12:49:26;;;;;;;44.70;32.60;;;;;;;;;;4954533;28;20283;-35
2022/10/23 12:52:00;;;;;;;47.43;34.30;;;;;;;;;;4958071;28;20758;-36
2022/10/23 12:54:26;;;;;;;40.67;33.67;;;;;;;;;;4957780;28;20601;-37
2022/10/23 12:56:53;;;;;;;39.20;32.90;;;;;;;;;;4955374;28;20673;-37
2022/10/23 12:59:25;;;;;;;43.00;35.40;;;;;;;;;;4954368;28;20715;-37
2022/10/23 13:01:52;;;;;;;44.03;34.40;;;;;;;;;;4953118;28;20357;-37
2022/10/23 13:04:21;;;;;;;44.40;32.87;;;;;;;;;;4952233;28;20182;-37
2022/10/23 13:06:47;;;;;;;41.17;33.30;;;;;;;;;;4958194;28;20190;-37
2022/10/23 13:09:25;;;;;;;44.70;31.50;;;;;;;;;;4957476;28;20529;-37
2022/10/23 13:11:51;;;;;;;42.10;33.47;;;;;;;;;;4956161;28;20208;-37
2022/10/23 13:14:45;;;;;;;43.17;34.13;;;;;;;;;;4951215;28;20210;-37
2022/10/23 13:17:11;;;;;;;42.53;33.47;;;;;;;;;;4938942;28;20293;-37
2022/10/23 13:19:37;;;;;;;47.63;34.77;;;;;;;;;;4957651;28;20178;-37
2022/10/23 13:22:05;;;;;;;45.47;36.90;;;;;;;;;;4955981;28;20480;-37
2022/10/23 13:24:31;;;;;;;47.00;35.50;;;;;;;;;;4960800;28;20644;-37
2022/10/23 13:26:58;;;;;;;42.87;34.10;;;;;;;;;;4959924;28;20186;-37
2022/10/23 13:29:26;;;;;;;46.57;35.33;;;;;;;;;;4957088;28;20197;-36
2022/10/23 13:31:52;;;;;;;43.40;34.20;;;;;;;;;;4956769;28;20441;-37
2022/10/23 13:34:28;;;;;;;48.30;34.67;;;;;;;;;;4958992;28;20204;-36
2022/10/23 13:36:56;;;;;;;46.70;35.60;;;;;;;;;;4955508;28;20174;-37
2022/10/23 13:39:24;;;;;;;41.83;33.50;;;;;;;;;;4951166;28;20613;-37
2022/10/23 13:41:50;;;;;;;44.13;33.27;;;;;;;;;;4947736;28;20194;-36
2022/10/23 13:44:18;;;;;;;42.30;32.97;;;;;;;;;;4947921;28;20193;-37
2022/10/23 13:46:44;;;;;;;46.03;34.37;;;;;;;;;;4934727;28;20402;-37
2022/10/23 13:49:10;;;;;;;41.40;31.60;;;;;;;;;;4943812;28;20622;-37
2022/10/23 13:51:40;;;;;;;41.43;32.63;;;;;;;;;;4951172;28;20898;-37
2022/10/23 13:54:10;;;;;;;41.33;31.93;;;;;;;;;;4960031;28;20202;-37
2022/10/23 13:56:36;;;;;;;44.53;33.13;;;;;;;;;;4954450;28;20240;-37
2022/10/23 13:59:02;;;;;;;43.70;31.83;;;;;;;;;;4945419;28;20970;-37
2022/10/23 14:01:29;;;;;;;43.27;32.60;;;;;;;;;;4956077;28;20256;-37
2022/10/23 14:03:56;;;;;;;40.80;32.20;;;;;;;;;;4953178;28;20175;-37
2022/10/23 14:06:23;;;;;;;41.73;32.33;;;;;;;;;;4954928;28;20584;-37
2022/10/23 14:08:49;;;;;;;41.63;30.97;;;;;;;;;;4941374;28;20909;-36
2022/10/23 14:11:16;;;;;;;43.70;32.23;;;;;;;;;;4943541;28;20183;-37
2022/10/23 14:13:43;;;;;;;47.30;34.20;;;;;;;;;;4941245;28;20528;-36
2022/10/23 14:16:11;;;;;;;39.33;30.67;;;;;;;;;;4946173;28;20174;-36
2022/10/23 14:18:37;;;;;;;44.57;33.50;;;;;;;;;;4951076;28;20638;-36
2022/10/23 14:21:04;;;;;;;43.00;32.17;;;;;;;;;;4946270;28;20167;-36
2022/10/23 14:23:30;;;;;;;43.60;33.07;;;;;;;;;;4947926;28;20705;-37
2022/10/23 14:26:06;;;;;;;46.07;31.43;;;;;;;;;;4946127;28;20743;-37
2022/10/23 14:28:32;;;;;;;47.00;31.73;;;;;;;;;;4945412;28;20523;-36